AirNav   ATP
 
 527 users online  

8ND0 Amble - Tiger North Farms Airport
Sarles, North Dakota, USA


FAA INFORMATION EFFECTIVE 09 NOVEMBER 2017

Location

FAA Identifier: 8ND0
Lat/Long: 48-54-05.0240N / 099-01-00.4660W
48-54.083733N / 099-01.007767W
48.9013956 / -99.0167961
(estimated)
Elevation: 1590 ft. / 485 m (estimated)
Variation: 08E (1985)
From city: 3 miles SW of SARLES, ND
Time zone: UTC -6 (UTC -5 during Daylight Saving Time)
Zip code: 58372

Airport Operations

Airport use: Private use. Permission required prior to landing
Control tower: no
ARTCC: MINNEAPOLIS CENTER
FSS: GRAND FORKS FLIGHT SERVICE STATION
Attendance: IREG
Wind indicator: no
Segmented circle: no

Airport Services

Runway Information

Runway 17/35

Dimensions: 2550 x 60 ft. / 777 x 18 m
RY REMEASURED.
Surface: turf
RUNWAY 17  RUNWAY 35
Traffic pattern: leftleft
Obstructions: 55 ft. elev, 270 ft. from runwaynone

Airport Ownership and Management from official FAA records

Ownership: Privately-owned
Owner: TODD AMBLE
7726-103RD ST. NE
SARLES, ND 58372
Phone 701-697-5243
Manager: TODD AMBLE
7726-103RD ST. NE
SARLES, ND 58372
Phone 701-697-5243

Additional Remarks

LAND TO THE NORTH, DEPART TO THE SOUTH.

Instrument Procedures

There are no published instrument procedures at 8ND0.

Some nearby airports with instrument procedures:

06D - Rolla Municipal Airport (24 nm W)
D55 - Robertson Field Airport (26 nm E)
9D7 - Cando Municipal Airport (27 nm S)
96D - Walhalla Municipal Airport (44 nm E)
KDVL - Devils Lake Regional Airport (47 nm S)
 
Loc | Ops | Rwys | IFR | FBO | Links
Com | Nav | Svcs | Stats | Notes


 
Area around 8ND0 (Amble - Tiger North Farms Airport)
 
Road maps at: MapQuest Bing Google
 
Aerial photo
No photo
 
Sectional chart

 
Airport distance calculator
Flying to Amble - Tiger North Farms Airport? Find the distance to fly.

From to 8ND0

Sunrise and sunset
Times for 23-Nov-2017
 Local
(UTC-6)
 Zulu
(UTC)
Morning civil twilight07:2313:23
Sunrise07:5813:58
Sunset16:4722:47
Evening civil twilight17:2223:22

Current date and time
Zulu (UTC)  24-Nov-2017 04:41:54
Local (UTC-6)  23-Nov-2017 22:41:54
 
METAR
CWPO 
18nm N 
240400Z AUTO 23008KT 03/01 RMK AO1 SOG 03 6025 SLP921 T00260008
K06D 
24nm W 
240415Z AUTO 28021G26KT 10SM CLR 12/03 A2927 RMK AO2
KD55 
26nm E 
240415Z AUTO 22017KT 10SM CLR 05/04 A2926 RMK AO2
K9D7 
27nm S 
240415Z AUTO 25008KT 10SM CLR 05/03 A2930 RMK AO2
TAF
KDVL 
47nm S 
232108Z 2321/2418 16006KT P6SM SCT250 FM240100 23011G19KT P6SM SCT200 WS020/27040KT FM240500 25012G24KT P6SM BKN200 FM241300 29026G37KT P6SM BKN070
NOTAMs
Click for the latest NOTAMs
NOTAMs are issued by the DoD/FAA and will open in a separate window not controlled by AirNav.

 

 
 

Would you like to see your business listed on this page?

 If your business provides an interesting product or service to pilots, flight crews, aircraft, or users of the Amble - Tiger North Farms Airport, you should consider listing it here.  To start the listing process, click on the button below
 
Add a business
 

Other Pages about Amble - Tiger North Farms Airport

Update a link
 
Copyright © AirNav, LLC. All rights reserved. Privacy Policy  Contact